createdAt,value
2019-05-21T00:00:24.215Z,99810.02
2019-05-21T00:02:57.576Z,99811.88
2019-05-21T00:05:30.504Z,99808.41
2019-05-21T00:08:03.433Z,99810.61
2019-05-21T00:10:36.262Z,99807.29
2019-05-21T00:13:09.374Z,99805.16
2019-05-21T00:15:42.213Z,99809.14
2019-05-21T00:18:15.013Z,99806.10
2019-05-21T00:20:47.858Z,99806.42
2019-05-21T00:23:20.644Z,99801.19
2019-05-21T00:25:53.533Z,99806.97
2019-05-21T00:28:42.202Z,99802.93
2019-05-21T00:32:08.916Z,99807.36
2019-05-21T00:35:46.519Z,99805.23
2019-05-21T00:39:13.441Z,99807.52
2019-05-21T00:42:03.561Z,99807.94
2019-05-21T00:44:40.412Z,99811.85
2019-05-21T00:47:14.297Z,99810.59
2019-05-21T00:49:47.122Z,99822.07
2019-05-21T00:52:20.002Z,99816.45
2019-05-21T00:54:52.901Z,99823.55
2019-05-21T00:57:25.787Z,99816.09
2019-05-21T00:59:59.682Z,99820.13
2019-05-21T01:02:32.698Z,99810.47
2019-05-21T01:05:05.677Z,99807.85
2019-05-21T01:07:38.569Z,99807.02
2019-05-21T01:10:11.525Z,99806.17
2019-05-21T01:12:44.415Z,99809.34
2019-05-21T01:15:17.255Z,99812.24
2019-05-21T01:17:50.288Z,99816.01
2019-05-21T01:20:23.352Z,99812.55
2019-05-21T01:22:56.247Z,99803.70
2019-05-21T01:25:29.364Z,99810.39
2019-05-21T01:28:02.277Z,99815.95
2019-05-21T01:30:35.096Z,99812.28
2019-05-21T01:33:07.906Z,99809.67
2019-05-21T01:35:40.768Z,99817.17
2019-05-21T01:38:13.558Z,99822.16
2019-05-21T01:40:46.469Z,99825.23
2019-05-21T01:43:19.308Z,99821.59
2019-05-21T01:45:52.145Z,99823.06
2019-05-21T01:48:24.963Z,99831.00
2019-05-21T01:50:57.842Z,99822.80
2019-05-21T01:53:30.725Z,99824.23
2019-05-21T01:56:03.608Z,99825.08
2019-05-21T01:58:37.683Z,99818.23
2019-05-21T02:01:10.547Z,99822.31
2019-05-21T02:03:43.771Z,99819.33
2019-05-21T02:06:16.775Z,99820.72
2019-05-21T02:08:49.581Z,99816.84
2019-05-21T02:11:22.578Z,99815.63
2019-05-21T02:13:55.485Z,99812.02
2019-05-21T02:16:28.282Z,99821.23
2019-05-21T02:19:01.091Z,99818.45
2019-05-21T02:21:34.170Z,99823.30
2019-05-21T02:24:07.135Z,99818.92
2019-05-21T02:26:39.939Z,99814.62
2019-05-21T02:29:12.760Z,99815.56
2019-05-21T02:31:45.630Z,99814.77
2019-05-21T02:34:18.398Z,99822.25
2019-05-21T02:36:51.215Z,99828.54
2019-05-21T02:39:25.012Z,99829.19
2019-05-21T02:41:57.858Z,99826.59
2019-05-21T02:44:30.705Z,99827.14
2019-05-21T02:47:03.632Z,99825.37
2019-05-21T02:49:36.508Z,99827.94
2019-05-21T02:52:09.369Z,99833.19
2019-05-21T02:54:42.255Z,99827.49
2019-05-21T02:57:15.089Z,99831.91
2019-05-21T02:59:49.581Z,99834.97
2019-05-21T03:02:29.991Z,99840.16
2019-05-21T03:05:02.777Z,99833.53
2019-05-21T03:07:35.760Z,99836.58
2019-05-21T03:10:08.977Z,99842.28
2019-05-21T03:12:41.777Z,99840.98
2019-05-21T03:15:14.797Z,99847.58
2019-05-21T03:17:47.617Z,99847.58
2019-05-21T03:20:20.799Z,99851.04
2019-05-21T03:22:53.680Z,99847.50
2019-05-21T03:25:26.501Z,99854.88
2019-05-21T03:27:59.316Z,99847.81
2019-05-21T03:30:33.286Z,99852.23
2019-05-21T03:33:06.148Z,99850.88
2019-05-21T03:35:38.999Z,99852.46
2019-05-21T03:38:11.832Z,99851.41
2019-05-21T03:40:44.712Z,99853.88
2019-05-21T03:43:17.527Z,99862.02
2019-05-21T03:45:50.309Z,99861.72
2019-05-21T03:48:23.118Z,99861.58
2019-05-21T03:50:56.018Z,99867.72
2019-05-21T03:53:28.855Z,99859.77
2019-05-21T03:56:01.737Z,99863.94
2019-05-21T03:58:34.643Z,99859.38
2019-05-21T04:01:07.451Z,99864.37
2019-05-21T04:03:41.348Z,99862.72
2019-05-21T04:06:14.181Z,99859.73
2019-05-21T04:08:47.074Z,99867.31
2019-05-21T04:11:19.880Z,99858.39
2019-05-21T04:13:52.713Z,99862.88
2019-05-21T04:16:44.695Z,99860.73
2019-05-21T04:19:31.115Z,99868.27
2019-05-21T04:22:03.930Z,99864.02
2019-05-21T04:24:36.849Z,99861.00
2019-05-21T04:27:09.646Z,99856.63
2019-05-21T04:29:42.688Z,99858.56
2019-05-21T04:32:15.541Z,99854.05
2019-05-21T04:34:48.742Z,99861.45
2019-05-21T04:37:21.937Z,99863.08
2019-05-21T04:39:55.003Z,99856.03
2019-05-21T04:42:27.829Z,99860.33
2019-05-21T04:45:00.669Z,99854.80
2019-05-21T04:47:33.486Z,99852.33
2019-05-21T04:50:06.834Z,99849.65
2019-05-21T04:52:39.639Z,99842.84
2019-05-21T04:55:12.829Z,99844.88
2019-05-21T04:57:45.704Z,99845.20
2019-05-21T05:00:18.649Z,99850.09
2019-05-21T05:02:51.481Z,99851.36
2019-05-21T05:05:24.422Z,99854.75
2019-05-21T05:07:57.237Z,99854.56
2019-05-21T05:10:30.232Z,99846.43
2019-05-21T05:13:04.089Z,99852.84
2019-05-21T05:15:36.945Z,99853.17
2019-05-21T05:18:09.837Z,99847.52
2019-05-21T05:20:42.722Z,99856.37
2019-05-21T05:23:15.615Z,99862.52
2019-05-21T05:25:48.442Z,99860.39
2019-05-21T05:28:21.258Z,99864.08
2019-05-21T05:30:54.154Z,99865.84
2019-05-21T05:33:26.991Z,99865.44
2019-05-21T05:35:59.828Z,99866.44
2019-05-21T05:38:32.688Z,99859.75
2019-05-21T05:41:05.515Z,99870.74
2019-05-21T05:43:38.393Z,99869.02
2019-05-21T05:46:11.289Z,99874.86
2019-05-21T05:49:09.089Z,99877.84
2019-05-21T05:51:41.973Z,99878.53
2019-05-21T05:54:14.857Z,99876.84
2019-05-21T05:56:47.752Z,99878.72
2019-05-21T05:59:20.629Z,99873.81
2019-05-21T06:01:53.530Z,99877.47
2019-05-21T06:04:26.429Z,99867.36
2019-05-21T06:06:59.294Z,99869.70
2019-05-21T06:09:32.257Z,99868.19
2019-05-21T06:12:05.161Z,99872.14
2019-05-21T06:14:38.083Z,99860.35
2019-05-21T06:17:11.041Z,99863.14
2019-05-21T06:19:43.908Z,99855.80
2019-05-21T06:22:16.819Z,99854.70
2019-05-21T06:24:49.929Z,99854.38
2019-05-21T06:27:22.914Z,99855.33
2019-05-21T06:29:55.782Z,99861.48
2019-05-21T06:32:28.582Z,99852.41
2019-05-21T06:35:01.387Z,99852.55
2019-05-21T06:37:34.272Z,99855.82
2019-05-21T06:40:08.567Z,99851.02
2019-05-21T06:42:41.487Z,99852.95
2019-05-21T06:45:15.114Z,99850.55
2019-05-21T06:47:47.975Z,99852.95
2019-05-21T06:50:21.182Z,99855.77
2019-05-21T06:52:54.087Z,99853.12
2019-05-21T06:55:26.985Z,99849.03
2019-05-21T06:58:00.766Z,99861.13
2019-05-21T07:00:33.641Z,99861.38
2019-05-21T07:03:06.657Z,99859.39
2019-05-21T07:05:39.520Z,99855.89
2019-05-21T07:08:12.516Z,99858.66
2019-05-21T07:10:45.343Z,99860.80
2019-05-21T07:13:18.232Z,99858.45
2019-05-21T07:15:51.154Z,99862.39
2019-05-21T07:18:24.128Z,99861.89
2019-05-21T07:20:57.037Z,99867.81
2019-05-21T07:23:29.908Z,99856.77
2019-05-21T07:26:02.740Z,99861.20
2019-05-21T07:28:35.693Z,99864.25
2019-05-21T07:31:08.613Z,99864.48
2019-05-21T07:33:41.531Z,99870.66
2019-05-21T07:36:14.623Z,99863.67
2019-05-21T07:38:53.305Z,99865.55
2019-05-21T07:41:22.099Z,99866.98
2019-05-21T07:43:54.903Z,99869.47
2019-05-21T07:46:28.692Z,99869.39
2019-05-21T07:49:01.496Z,99865.39
2019-05-21T07:51:35.376Z,99872.22
2019-05-21T07:54:08.249Z,99878.81
2019-05-21T07:56:41.043Z,99875.04
2019-05-21T07:59:13.823Z,99871.24
2019-05-21T08:01:46.622Z,99861.84
2019-05-21T08:04:19.548Z,99869.80
2019-05-21T08:06:53.471Z,99866.56
2019-05-21T08:09:26.676Z,99868.52
2019-05-21T08:11:59.476Z,99877.55
2019-05-21T08:14:32.474Z,99873.52
2019-05-21T08:17:05.378Z,99879.33
2019-05-21T08:19:38.780Z,99874.86
2019-05-21T08:22:11.568Z,99870.48
2019-05-21T08:24:44.527Z,99865.65
2019-05-21T08:27:17.368Z,99866.12
2019-05-21T08:29:50.237Z,99861.50
2019-05-21T08:32:23.148Z,99852.23
2019-05-21T08:34:56.135Z,99859.05
2019-05-21T08:37:29.034Z,99859.94
2019-05-21T08:40:01.991Z,99844.83
2019-05-21T08:42:34.936Z,99858.85
2019-05-21T08:45:09.578Z,99860.75
2019-05-21T08:47:42.477Z,99858.28
2019-05-21T08:50:15.464Z,99860.84
2019-05-21T08:52:48.293Z,99855.28
2019-05-21T08:55:21.189Z,99861.81
2019-05-21T09:00:29.165Z,99861.81
2019-05-21T09:03:02.050Z,99861.61
2019-05-21T09:03:13.830Z,99860.18
2019-05-21T09:05:34.833Z,99865.50
2019-05-21T09:08:07.861Z,99864.24
2019-05-21T09:10:43.618Z,99860.27
2019-05-21T09:13:18.152Z,99863.56
2019-05-21T09:15:51.190Z,99860.02
2019-05-21T09:18:24.072Z,99865.84
2019-05-21T09:20:56.895Z,99867.56
2019-05-21T09:23:29.681Z,99867.41
2019-05-21T09:26:02.468Z,99872.15
2019-05-21T09:28:35.280Z,99870.83
2019-05-21T09:31:08.059Z,99872.42
2019-05-21T09:33:42.054Z,99872.24
2019-05-21T09:36:14.923Z,99865.50
2019-05-21T09:38:47.732Z,99867.14
2019-05-21T09:41:20.514Z,99864.22
2019-05-21T09:43:53.401Z,99862.56
2019-05-21T09:46:26.323Z,99862.54
2019-05-21T09:48:59.230Z,99862.68
2019-05-21T09:51:32.058Z,99862.16
2019-05-21T09:54:05.722Z,99858.36
2019-05-21T09:56:38.718Z,99857.41
2019-05-21T09:59:32.409Z,99856.05
2019-05-21T10:02:10.309Z,99860.82
2019-05-21T10:04:43.108Z,99855.77
2019-05-21T10:07:16.192Z,99854.08
2019-05-21T10:09:49.079Z,99850.97
2019-05-21T10:12:22.734Z,99853.66
2019-05-21T10:14:55.620Z,99848.77
2019-05-21T10:17:28.435Z,99846.41
2019-05-21T10:20:01.368Z,99844.88
2019-05-21T10:22:34.235Z,99846.39
2019-05-21T10:25:07.868Z,99846.17
2019-05-21T10:27:40.779Z,99844.55
2019-05-21T10:30:13.977Z,99846.19
2019-05-21T10:32:46.903Z,99844.11
2019-05-21T10:35:19.795Z,99838.43
2019-05-21T10:37:55.369Z,99842.78
2019-05-21T10:40:27.330Z,99838.89
2019-05-21T10:43:00.215Z,99840.98
2019-05-21T10:45:33.083Z,99840.15
2019-05-21T10:48:05.952Z,99846.73
2019-05-21T10:50:38.825Z,99851.27
2019-05-21T10:53:11.688Z,99856.00
2019-05-21T10:55:44.580Z,99847.66
2019-05-21T10:58:17.381Z,99844.50
2019-05-21T11:00:52.021Z,99839.84
2019-05-21T11:03:43.865Z,99846.04
2019-05-21T11:06:17.171Z,99849.66
2019-05-21T11:08:50.264Z,99856.21
2019-05-21T11:11:23.376Z,99850.92
2019-05-21T11:13:56.214Z,99857.72
2019-05-21T11:16:29.084Z,99851.52
2019-05-21T11:19:02.340Z,99852.89
2019-05-21T11:21:35.320Z,99851.70
2019-05-21T11:24:08.152Z,99854.89
2019-05-21T11:26:41.071Z,99853.47
2019-05-21T11:29:13.901Z,99852.00
2019-05-21T11:31:56.401Z,99850.17
2019-05-21T11:34:21.355Z,99844.98
2019-05-21T11:36:54.204Z,99846.23
2019-05-21T11:39:27.057Z,99845.37
2019-05-21T11:41:59.829Z,99851.04
2019-05-21T11:44:32.646Z,99849.22
2019-05-21T11:47:05.884Z,99846.34
2019-05-21T11:49:38.767Z,99843.16
2019-05-21T11:52:11.671Z,99836.56
2019-05-21T11:54:44.453Z,99836.55
2019-05-21T11:57:17.361Z,99829.59
2019-05-21T11:59:50.273Z,99832.52
2019-05-21T12:02:23.254Z,99831.27
2019-05-21T12:04:56.092Z,99839.72
2019-05-21T12:07:29.112Z,99833.77
2019-05-21T12:10:01.944Z,99833.83
2019-05-21T12:12:34.903Z,99832.35
2019-05-21T12:15:09.018Z,99833.95
2019-05-21T12:17:42.504Z,99836.69
2019-05-21T12:20:35.282Z,99841.42
2019-05-21T12:22:58.227Z,99834.98
2019-05-21T12:25:32.482Z,99840.98
2019-05-21T12:28:05.543Z,99846.92
2019-05-21T12:30:39.398Z,99840.77
2019-05-21T12:33:12.235Z,99839.81
2019-05-21T12:35:45.544Z,99849.30
2019-05-21T12:38:18.400Z,99851.91
2019-05-21T12:40:52.558Z,99838.92
2019-05-21T12:43:25.447Z,99849.70
2019-05-21T12:45:58.223Z,99858.45
2019-05-21T12:48:31.532Z,99873.66
2019-05-21T12:51:04.593Z,99874.14
2019-05-21T12:53:37.695Z,99873.08
2019-05-21T12:56:10.810Z,99864.98
2019-05-21T12:58:44.289Z,99856.09
2019-05-21T13:01:17.353Z,99847.98
2019-05-21T13:03:50.351Z,99848.53
2019-05-21T13:06:23.416Z,99842.68
2019-05-21T13:08:56.628Z,99849.23
2019-05-21T13:11:31.111Z,99841.94
2019-05-21T13:14:06.367Z,99847.48
2019-05-21T13:16:42.149Z,99842.27
2019-05-21T13:19:15.056Z,99842.12
2019-05-21T13:21:48.224Z,99844.16
2019-05-21T13:24:21.359Z,99847.95
2019-05-21T13:26:54.363Z,99841.44
2019-05-21T13:29:27.451Z,99845.17
2019-05-21T13:32:00.383Z,99837.41
2019-05-21T13:34:33.254Z,99840.64
2019-05-21T13:37:08.728Z,99841.20
2019-05-21T13:39:50.192Z,99841.79
2019-05-21T13:42:19.818Z,99838.12
2019-05-21T13:44:53.077Z,99839.89
2019-05-21T13:47:27.333Z,99840.59
2019-05-21T13:50:04.060Z,99834.10
2019-05-21T13:52:36.954Z,99835.58
2019-05-21T13:55:10.717Z,99834.63
2019-05-21T13:57:47.001Z,99830.36
2019-05-21T14:00:26.322Z,99835.23
2019-05-21T14:03:01.597Z,99833.94
2019-05-21T14:05:38.275Z,99829.96
2019-05-21T14:08:11.376Z,99832.01
2019-05-21T14:10:44.341Z,99831.14
2019-05-21T14:13:17.374Z,99828.00
2019-05-21T14:15:50.215Z,99828.16
2019-05-21T14:18:23.289Z,99822.12
2019-05-21T14:20:59.124Z,99828.20
2019-05-21T14:23:35.136Z,99836.51
2019-05-21T14:26:08.429Z,99846.95
2019-05-21T14:28:43.288Z,99840.53
2019-05-21T14:31:24.971Z,99832.41
2019-05-21T14:33:57.914Z,99829.41
2019-05-21T14:36:30.936Z,99828.27
2019-05-21T14:39:06.586Z,99826.37
2019-05-21T14:41:39.549Z,99819.16
2019-05-21T14:44:12.564Z,99818.64
2019-05-21T14:46:45.789Z,99822.25
2019-05-21T14:49:20.087Z,99817.86
2019-05-21T14:51:53.752Z,99825.03
2019-05-21T14:54:27.279Z,99825.37
2019-05-21T14:57:00.419Z,99818.68
2019-05-21T14:59:36.579Z,99821.30
2019-05-21T15:02:09.428Z,99823.85
2019-05-21T15:04:42.819Z,99827.19
2019-05-21T15:07:16.068Z,99824.99
2019-05-21T15:09:53.161Z,99838.05
2019-05-21T15:12:23.564Z,99828.92
2019-05-21T15:14:56.398Z,99828.67
2019-05-21T15:17:29.508Z,99833.02
2019-05-21T15:20:05.688Z,99833.36
2019-05-21T15:22:38.594Z,99830.06
2019-05-21T15:25:11.726Z,99829.19
2019-05-21T15:27:44.704Z,99832.60
2019-05-21T15:30:17.864Z,99833.23
2019-05-21T15:32:50.824Z,99835.36
2019-05-21T15:35:23.656Z,99822.97
2019-05-21T15:37:56.882Z,99816.95
2019-05-21T15:40:29.851Z,99821.02
2019-05-21T15:43:02.823Z,99824.41
2019-05-21T15:45:35.734Z,99827.43
2019-05-21T15:48:08.527Z,99816.53
2019-05-21T15:50:41.425Z,99822.99
2019-05-21T15:53:14.249Z,99818.70
2019-05-21T15:55:47.226Z,99822.73
2019-05-21T15:58:20.246Z,99814.89
2019-05-21T16:00:53.350Z,99816.63
2019-05-21T16:03:26.113Z,99815.59
2019-05-21T16:05:59.141Z,99809.84
2019-05-21T16:08:33.310Z,99809.57
2019-05-21T16:11:06.391Z,99816.67
2019-05-21T16:13:39.285Z,99822.34
2019-05-21T16:16:12.273Z,99816.12
2019-05-21T16:18:45.229Z,99812.85
2019-05-21T16:21:19.664Z,99815.53
2019-05-21T16:23:52.501Z,99811.78
2019-05-21T16:26:25.986Z,99808.19
2019-05-21T16:28:58.913Z,99807.12
2019-05-21T16:31:31.916Z,99809.48
2019-05-21T16:34:04.797Z,99814.16
2019-05-21T16:36:37.739Z,99817.11
2019-05-21T16:39:10.675Z,99812.30
2019-05-21T16:41:45.325Z,99812.84
2019-05-21T16:44:18.176Z,99807.67
2019-05-21T16:46:51.060Z,99812.43
2019-05-21T16:49:24.038Z,99813.77
2019-05-21T16:51:56.856Z,99809.25
2019-05-21T16:54:29.698Z,99805.63
2019-05-21T16:57:02.520Z,99806.41
2019-05-21T16:59:35.294Z,99805.94
2019-05-21T17:02:08.771Z,99799.31
2019-05-21T17:04:41.742Z,99813.77
2019-05-21T17:07:14.698Z,99813.45
2019-05-21T17:09:47.603Z,99809.98
2019-05-21T17:12:20.480Z,99809.30
2019-05-21T17:14:53.518Z,99808.77
2019-05-21T17:17:26.714Z,99804.38
2019-05-21T17:19:59.617Z,99806.66
2019-05-21T17:22:32.504Z,99804.13
2019-05-21T17:25:06.239Z,99801.64
2019-05-21T17:27:39.264Z,99801.02
2019-05-21T17:30:13.199Z,99792.13
2019-05-21T17:32:46.356Z,99791.66
2019-05-21T17:35:19.402Z,99792.78
2019-05-21T17:37:52.773Z,99788.95
2019-05-21T17:40:25.739Z,99789.56
2019-05-21T17:42:58.741Z,99787.83
2019-05-21T17:45:31.696Z,99790.11
2019-05-21T17:48:04.594Z,99783.12
2019-05-21T17:50:37.805Z,99776.98
2019-05-21T17:53:10.724Z,99768.95
2019-05-21T17:55:43.628Z,99772.05
2019-05-21T17:58:17.686Z,99777.72
2019-05-21T18:00:54.553Z,99766.86
2019-05-21T18:03:27.815Z,99762.16
2019-05-21T18:06:00.910Z,99757.53
2019-05-21T18:08:34.397Z,99755.97
2019-05-21T18:11:07.634Z,99770.28
2019-05-21T18:13:41.778Z,99773.89
2019-05-21T18:16:15.305Z,99776.16
2019-05-21T18:18:48.221Z,99770.41
2019-05-21T18:21:22.057Z,99775.87
2019-05-21T18:23:55.013Z,99776.23
2019-05-21T18:26:27.843Z,99782.92
2019-05-21T18:29:01.063Z,99781.42
2019-05-21T18:31:33.938Z,99784.31
2019-05-21T18:34:07.132Z,99776.12
2019-05-21T18:36:40.167Z,99786.13
2019-05-21T18:39:13.006Z,99788.33
2019-05-21T18:41:46.466Z,99789.97
2019-05-21T18:44:19.625Z,99812.24
2019-05-21T18:46:52.659Z,99856.69
2019-05-21T18:49:27.659Z,99876.70
2019-05-21T18:52:00.474Z,99871.84
2019-05-21T18:54:33.394Z,99863.33
2019-05-21T18:57:06.888Z,99884.14
2019-05-21T18:59:40.278Z,99878.09
2019-05-21T19:02:14.008Z,99879.26
2019-05-21T19:04:47.101Z,99879.29
2019-05-21T19:07:20.159Z,99882.41
2019-05-21T19:09:53.190Z,99888.47
2019-05-21T19:12:37.620Z,99881.81
2019-05-21T19:15:01.688Z,99885.81
2019-05-21T19:17:36.247Z,99877.13
2019-05-21T19:20:09.892Z,99882.77
2019-05-21T19:22:43.969Z,99884.84
2019-05-21T19:25:17.352Z,99878.00
2019-05-21T19:27:50.226Z,99875.78
2019-05-21T19:30:23.499Z,99865.39
2019-05-21T19:32:56.803Z,99867.14
2019-05-21T19:35:32.887Z,99862.63
2019-05-21T19:38:04.446Z,99874.67
2019-05-21T19:40:37.580Z,99866.73
2019-05-21T19:43:10.606Z,99870.16
2019-05-21T19:45:43.614Z,99870.43
2019-05-21T19:48:16.541Z,99862.17
2019-05-21T19:50:49.659Z,99868.06
2019-05-21T19:53:22.822Z,99857.35
2019-05-21T19:55:56.354Z,99854.73
2019-05-21T19:58:29.376Z,99858.17
2019-05-21T20:01:02.571Z,99858.17
2019-05-21T20:03:35.677Z,99859.56
2019-05-21T20:06:10.532Z,99863.83
2019-05-21T20:08:44.663Z,99863.72
2019-05-21T20:11:18.931Z,99863.03
2019-05-21T20:13:51.931Z,99863.50
2019-05-21T20:16:27.571Z,99869.75
2019-05-21T20:19:00.539Z,99862.89
2019-05-21T20:21:35.003Z,99859.61
2019-05-21T20:24:09.134Z,99862.73
2019-05-21T20:26:42.176Z,99860.16
2019-05-21T20:29:15.289Z,99865.94
2019-05-21T20:31:48.792Z,99862.81
2019-05-21T20:34:22.382Z,99862.17
2019-05-21T20:36:56.659Z,99862.39
2019-05-21T20:39:31.039Z,99864.23
2019-05-21T20:42:05.846Z,99861.93
2019-05-21T20:44:38.864Z,99856.14
2019-05-21T20:47:13.620Z,99856.14
2019-05-21T20:49:49.003Z,99858.34
2019-05-21T20:52:21.981Z,99853.17
2019-05-21T20:54:56.992Z,99855.78
2019-05-21T20:57:31.043Z,99860.78
2019-05-21T21:00:04.413Z,99857.66
2019-05-21T21:02:40.839Z,99854.73
2019-05-21T21:05:14.846Z,99856.73
2019-05-21T21:07:47.993Z,99855.41
2019-05-21T21:10:21.242Z,99857.70
2019-05-21T21:12:54.418Z,99858.94
2019-05-21T21:15:27.406Z,99854.48
2019-05-21T21:18:01.017Z,99858.16
2019-05-21T21:20:34.676Z,99852.61
2019-05-21T21:23:08.160Z,99850.16
2019-05-21T21:25:41.216Z,99851.19
2019-05-21T21:28:14.220Z,99841.59
2019-05-21T21:30:48.378Z,99839.20
2019-05-21T21:33:21.723Z,99835.93
2019-05-21T21:35:54.628Z,99840.02
2019-05-21T21:38:30.687Z,99842.23
2019-05-21T21:41:03.795Z,99844.38
2019-05-21T21:43:37.239Z,99841.82
2019-05-21T21:46:10.216Z,99839.35
2019-05-21T21:48:45.651Z,99837.71
2019-05-21T21:51:18.636Z,99839.45
2019-05-21T21:53:52.827Z,99844.68
2019-05-21T21:56:25.840Z,99843.55
2019-05-21T21:58:58.651Z,99847.39
2019-05-21T22:02:00.189Z,99845.05
2019-05-21T22:04:35.772Z,99850.42
2019-05-21T22:07:08.652Z,99848.22
2019-05-21T22:09:43.025Z,99852.99
2019-05-21T22:12:17.903Z,99853.27
2019-05-21T22:15:02.071Z,99858.59
2019-05-21T22:17:36.143Z,99852.07
2019-05-21T22:20:10.356Z,99856.33
2019-05-21T22:22:43.369Z,99859.41
2019-05-21T22:25:16.695Z,99858.30
2019-05-21T22:27:49.573Z,99862.80
2019-05-21T22:30:22.569Z,99864.13
2019-05-21T22:32:55.382Z,99864.41
2019-05-21T22:35:28.299Z,99864.36
2019-05-21T22:38:01.200Z,99858.99
2019-05-21T22:40:34.114Z,99867.94
2019-05-21T22:43:07.344Z,99853.22
2019-05-21T22:45:40.223Z,99847.48
2019-05-21T22:48:13.304Z,99847.44
2019-05-21T22:50:47.171Z,99844.36
2019-05-21T22:53:20.174Z,99848.91
2019-05-21T22:55:53.215Z,99844.67
2019-05-21T22:58:26.134Z,99845.00
2019-05-21T23:01:00.359Z,99842.89
2019-05-21T23:03:33.386Z,99848.84
2019-05-21T23:06:06.304Z,99846.28
2019-05-21T23:08:40.006Z,99852.47
2019-05-21T23:11:12.840Z,99856.08
2019-05-21T23:13:45.906Z,99853.25
2019-05-21T23:16:19.090Z,99850.68
2019-05-21T23:19:10.658Z,99854.43
2019-05-21T23:21:49.631Z,99856.58
2019-05-21T23:24:23.771Z,99852.31
2019-05-21T23:26:57.417Z,99853.05
2019-05-21T23:29:30.969Z,99851.72
2019-05-21T23:32:04.582Z,99861.86
2019-05-21T23:34:38.453Z,99860.58
2019-05-21T23:37:18.489Z,99855.93
2019-05-21T23:39:54.566Z,99863.33
2019-05-21T23:42:29.901Z,99861.53
2019-05-21T23:45:02.905Z,99859.92
2019-05-21T23:47:35.952Z,99864.78
2019-05-21T23:50:09.758Z,99859.97
2019-05-21T23:52:43.339Z,99858.69
2019-05-21T23:55:16.626Z,99860.42
2019-05-21T23:57:49.420Z,99851.79
